Time;durP1;ratioP1;P1;durP2;ratioP2;P2;SDS_P1;SDS_P2;PMS_P1;PMS_P2;Temp;Humidity;BMP_temperature;BMP_pressure;BME280_temperature;BME280_humidity;BME280_pressure;Samples;Min_cycle;Max_cycle;Signal;HPM_P1;HPM_P2
2023/07/09 00:02:03;;;;;;;32.30;13.65;;;27.40;91.50;;;;;;5051115;28;20523;-71
2023/07/09 00:05:14;;;;;;;22.85;12.88;;;27.40;91.60;;;;;;5051247;28;20511;-71
2023/07/09 00:08:29;;;;;;;27.83;13.88;;;27.40;91.60;;;;;;5051022;28;20032;-71
2023/07/09 00:11:33;;;;;;;22.35;14.98;;;27.50;91.50;;;;;;5051062;28;20520;-71
2023/07/09 00:14:37;;;;;;;24.73;14.07;;;27.50;91.60;;;;;;5049929;28;20059;-71
2023/07/09 00:17:41;;;;;;;24.95;15.25;;;27.50;91.60;;;;;;5050992;28;20108;-71
2023/07/09 00:20:48;;;;;;;32.55;16.10;;;27.50;91.80;;;;;;5050672;28;20055;-71
2023/07/09 00:23:52;;;;;;;26.95;17.33;;;27.40;91.70;;;;;;5050617;28;20064;-71
2023/07/09 00:26:56;;;;;;;30.08;17.05;;;27.50;91.70;;;;;;5051154;28;20556;-71
2023/07/09 00:30:00;;;;;;;24.70;15.90;;;27.40;91.70;;;;;;5050882;28;20389;-71
2023/07/09 00:33:04;;;;;;;24.15;15.43;;;27.30;91.70;;;;;;5050989;28;20052;-71
2023/07/09 00:36:34;;;;;;;27.83;16.60;;;27.30;91.70;;;;;;5050893;28;20071;-71
2023/07/09 00:39:40;;;;;;;25.48;15.40;;;27.30;91.90;;;;;;5050670;28;20392;-70
2023/07/09 00:42:49;;;;;;;31.92;15.25;;;27.20;92.00;;;;;;5049748;28;20056;-71
2023/07/09 00:46:23;;;;;;;31.83;18.02;;;27.20;92.10;;;;;;5050934;28;20040;-71
2023/07/09 00:49:34;;;;;;;29.92;17.13;;;27.10;92.10;;;;;;5054175;28;20055;-71
2023/07/09 00:52:45;;;;;;;;;;;27.00;92.10;;;;;;5055051;28;20167;-71
2023/07/09 00:55:57;;;;;;;26.75;15.25;;;27.10;92.30;;;;;;5053923;28;19916;-71
2023/07/09 00:59:04;;;;;;;27.42;15.57;;;27.10;92.30;;;;;;5054708;28;20070;-71
2023/07/09 01:02:08;;;;;;;25.48;15.90;;;27.00;92.50;;;;;;5053831;28;20064;-71
2023/07/09 01:05:13;;;;;;;26.20;15.80;;;27.00;92.40;;;;;;5054638;28;20056;-71
2023/07/09 01:08:20;;;;;;;22.60;14.80;;;26.90;92.50;;;;;;5054498;28;20041;-71
2023/07/09 01:11:24;;;;;;;23.35;15.75;;;26.90;92.60;;;;;;5054576;28;20499;-71
2023/07/09 01:14:28;;;;;;;27.38;15.02;;;26.90;92.60;;;;;;5054418;28;20044;-71
2023/07/09 01:17:32;;;;;;;24.48;15.15;;;26.80;92.50;;;;;;5054443;28;20052;-71
2023/07/09 01:20:39;;;;;;;28.10;14.98;;;26.80;92.60;;;;;;5053988;28;20412;-71
2023/07/09 01:23:45;;;;;;;26.50;15.93;;;26.70;92.50;;;;;;5054061;28;20056;-71
2023/07/09 01:26:50;;;;;;;22.85;14.70;;;26.70;92.60;;;;;;5054585;28;20044;-71
2023/07/09 01:29:56;;;;;;;30.63;14.40;;;26.70;92.60;;;;;;5053992;28;20055;-71
2023/07/09 01:33:01;;;;;;;23.92;14.50;;;26.70;92.60;;;;;;5054052;28;20044;-71
2023/07/09 01:36:23;;;;;;;26.27;15.35;;;26.60;92.60;;;;;;5054114;28;20496;-71
2023/07/09 01:39:28;;;;;;;31.02;15.27;;;26.60;92.60;;;;;;5053559;28;20040;-71
2023/07/09 01:42:32;;;;;;;32.40;16.02;;;26.70;92.60;;;;;;5053830;28;20056;-71
2023/07/09 01:45:37;;;;;;;32.75;16.05;;;26.80;92.70;;;;;;5041564;28;20052;-71
2023/07/09 01:48:41;;;;;;;28.58;15.60;;;26.70;92.70;;;;;;5052545;28;20044;-71
2023/07/09 01:51:49;;;;;;;29.80;15.73;;;26.70;93.00;;;;;;5053058;28;20051;-71
2023/07/09 01:54:53;;;;;;;34.83;15.48;;;26.60;92.90;;;;;;5053371;28;20048;-71
2023/07/09 01:57:57;;;;;;;27.45;15.27;;;26.60;93.00;;;;;;5051163;28;20040;-71
2023/07/09 02:01:02;;;;;;;24.55;15.02;;;26.50;93.10;;;;;;5052566;28;20052;-71
2023/07/09 02:04:06;;;;;;;23.60;14.25;;;26.50;93.10;;;;;;5052371;28;20508;-71
2023/07/09 02:07:10;;;;;;;29.27;14.40;;;26.40;93.20;;;;;;5052658;28;20051;-71
2023/07/09 02:10:17;;;;;;;28.95;14.80;;;26.40;93.30;;;;;;5052339;28;20118;-71
2023/07/09 02:13:21;;;;;;;21.10;13.95;;;26.40;93.30;;;;;;5053197;28;20044;-71
2023/07/09 02:16:25;;;;;;;22.42;13.93;;;26.50;93.30;;;;;;5052550;28;20060;-71
2023/07/09 02:19:30;;;;;;;22.48;13.95;;;26.50;93.10;;;;;;5052737;28;20112;-71
2023/07/09 02:22:36;;;;;;;28.95;14.88;;;26.50;93.20;;;;;;5052130;28;20568;-71
2023/07/09 02:25:41;;;;;;;27.60;14.20;;;26.50;93.20;;;;;;5052467;28;20040;-71
2023/07/09 02:28:45;;;;;;;18.27;14.35;;;26.50;93.30;;;;;;5052155;28;20048;-71
2023/07/09 02:31:52;;;;;;;31.63;14.15;;;26.40;93.10;;;;;;5053124;28;20495;-71
2023/07/09 02:34:56;;;;;;;30.83;14.40;;;26.40;93.30;;;;;;5052940;28;20519;-71
2023/07/09 02:38:01;;;;;;;22.70;13.25;;;26.40;93.30;;;;;;5052801;28;20094;-71
2023/07/09 02:41:05;;;;;;;18.48;12.75;;;26.40;93.30;;;;;;5052965;28;20060;-71
2023/07/09 02:44:10;;;;;;;26.63;13.32;;;26.40;93.30;;;;;;5051648;28;20056;-71
2023/07/09 02:47:14;;;;;;;24.60;12.07;;;26.30;93.40;;;;;;5052578;28;20040;-71
2023/07/09 02:50:18;;;;;;;21.13;12.48;;;26.30;93.50;;;;;;5051794;28;20047;-70
2023/07/09 02:53:22;;;;;;;20.20;13.07;;;26.30;93.40;;;;;;5051732;28;20044;-71
2023/07/09 02:56:27;;;;;;;19.13;12.40;;;26.50;93.40;;;;;;5052952;28;20067;-71
2023/07/09 02:59:31;;;;;;;20.70;13.15;;;26.50;93.30;;;;;;5052395;28;20040;-71
2023/07/09 03:02:35;;;;;;;19.50;12.00;;;26.50;93.30;;;;;;5051497;28;20056;-71
2023/07/09 03:05:39;;;;;;;23.83;12.50;;;26.50;93.30;;;;;;5051514;28;20048;-71
2023/07/09 03:08:43;;;;;;;24.00;12.80;;;26.50;93.30;;;;;;5051028;28;20040;-71
2023/07/09 03:11:48;;;;;;;23.75;13.18;;;26.40;93.40;;;;;;5052298;28;20056;-71
2023/07/09 03:14:53;;;;;;;21.38;12.77;;;26.40;93.30;;;;;;5052280;28;20048;-71
2023/07/09 03:17:57;;;;;;;22.83;13.10;;;26.40;93.30;;;;;;5052451;28;20495;-71
2023/07/09 03:21:02;;;;;;;24.35;13.43;;;26.40;93.30;;;;;;5050996;28;20049;-70
2023/07/09 03:24:07;;;;;;;21.73;12.98;;;26.30;93.30;;;;;;5051769;28;20511;-70
2023/07/09 03:27:12;;;;;;;22.25;13.07;;;26.30;93.50;;;;;;5051274;28;20032;-70
2023/07/09 03:30:16;;;;;;;25.58;12.60;;;26.30;93.60;;;;;;5051808;28;20052;-71
2023/07/09 03:33:39;;;;;;;22.33;12.90;;;26.30;93.40;;;;;;5052097;28;20048;-71
2023/07/09 03:36:44;;;;;;;22.70;12.55;;;26.20;93.60;;;;;;5052177;28;20067;-70
2023/07/09 03:39:48;;;;;;;23.52;13.75;;;26.20;93.60;;;;;;5051947;28;20048;-71
2023/07/09 03:42:53;;;;;;;31.23;14.38;;;26.20;93.40;;;;;;5051738;28;20060;-71
2023/07/09 03:45:57;;;;;;;25.15;18.70;;;26.10;93.50;;;;;;5051495;28;20051;-71
2023/07/09 03:49:01;;;;;;;27.55;16.77;;;26.00;93.70;;;;;;5050666;28;20048;-70
2023/07/09 03:52:05;;;;;;;25.45;15.82;;;26.00;93.70;;;;;;5051583;28;20366;-70
2023/07/09 03:55:10;;;;;;;24.23;16.42;;;26.10;93.60;;;;;;5051227;28;20036;-71
2023/07/09 03:58:14;;;;;;;23.45;14.52;;;25.90;93.50;;;;;;5051128;28;20043;-71
2023/07/09 04:01:17;;;;;;;29.25;15.93;;;25.80;94.00;;;;;;5051408;28;20044;-70
2023/07/09 04:04:22;;;;;;;25.95;15.07;;;25.90;94.10;;;;;;5051048;28;20124;-71
2023/07/09 04:07:26;;;;;;;30.52;16.17;;;25.90;93.90;;;;;;5050231;28;20044;-71
2023/07/09 04:10:30;;;;;;;21.15;14.93;;;26.00;93.70;;;;;;5051242;28;20040;-70
2023/07/09 04:13:34;;;;;;;26.63;14.52;;;26.10;93.60;;;;;;5051154;28;20048;-71
2023/07/09 04:16:38;;;;;;;22.63;15.18;;;26.10;93.50;;;;;;5051104;28;20048;-71
2023/07/09 04:19:42;;;;;;;24.00;15.80;;;26.20;93.60;;;;;;5049800;28;20064;-71
2023/07/09 04:22:47;;;;;;;29.25;15.48;;;26.20;93.70;;;;;;5051083;28;20047;-71
2023/07/09 04:25:51;;;;;;;26.30;14.93;;;26.20;93.40;;;;;;5050861;28;20056;-71
2023/07/09 04:28:55;;;;;;;27.60;14.57;;;26.30;93.50;;;;;;5050927;28;20514;-71
2023/07/09 04:32:00;;;;;;;27.23;13.98;;;26.30;93.40;;;;;;5051028;28;20668;-71
2023/07/09 04:35:06;;;;;;;22.42;14.32;;;26.40;93.30;;;;;;5050234;28;20412;-71
2023/07/09 04:38:10;;;;;;;25.90;15.15;;;26.40;93.40;;;;;;5050877;28;20043;-71
2023/07/09 04:41:14;;;;;;;25.60;15.05;;;26.40;93.10;;;;;;5050956;28;20044;-71
2023/07/09 04:44:18;;;;;;;28.10;15.10;;;26.40;93.40;;;;;;5050810;28;20048;-71
2023/07/09 04:47:22;;;;;;;22.27;14.15;;;26.60;93.10;;;;;;5050871;28;20108;-71
2023/07/09 04:50:26;;;;;;;23.00;14.27;;;26.70;93.00;;;;;;5050687;28;20060;-71
2023/07/09 04:53:31;;;;;;;22.92;14.20;;;26.80;92.90;;;;;;5050937;28;20405;-71
2023/07/09 04:56:37;;;;;;;24.48;13.40;;;27.00;92.50;;;;;;5050754;28;20104;-70
2023/07/09 04:59:42;;;;;;;25.90;14.30;;;27.10;92.50;;;;;;5050556;28;20059;-71
2023/07/09 05:02:45;;;;;;;24.23;13.73;;;27.20;92.30;;;;;;5050546;28;20052;-71
2023/07/09 05:05:50;;;;;;;26.65;13.57;;;27.30;92.30;;;;;;5050343;28;20048;-71
2023/07/09 05:08:54;;;;;;;25.85;13.80;;;27.40;92.00;;;;;;5050530;28;20067;-71
2023/07/09 05:11:59;;;;;;;20.77;13.63;;;27.60;91.70;;;;;;5038342;28;20511;-71
2023/07/09 05:15:04;;;;;;;20.35;13.73;;;27.80;91.60;;;;;;5050248;28;20393;-71
2023/07/09 05:18:08;;;;;;;25.85;14.13;;;28.00;91.30;;;;;;5050286;28;20622;-71
2023/07/09 05:21:13;;;;;;;21.52;15.15;;;28.20;91.30;;;;;;5050505;28;20048;-71
2023/07/09 05:24:17;;;;;;;27.63;13.88;;;28.20;90.80;;;;;;5050362;28;20076;-69
2023/07/09 05:27:21;;;;;;;24.08;13.93;;;28.30;90.60;;;;;;5050251;28;20044;-70
2023/07/09 05:30:26;;;;;;;21.27;12.35;;;28.40;90.60;;;;;;5050183;28;20048;-70
2023/07/09 05:33:30;;;;;;;19.83;11.55;;;28.60;90.60;;;;;;5053546;28;20040;-70
2023/07/09 05:36:34;;;;;;;23.15;12.07;;;28.90;88.60;;;;;;5053826;28;20059;-70
2023/07/09 05:39:38;;;;;;;23.40;11.32;;;29.00;87.70;;;;;;5053719;28;20044;-70
2023/07/09 05:42:42;;;;;;;19.20;10.77;;;29.20;87.30;;;;;;5054062;28;20040;-70
2023/07/09 05:45:46;;;;;;;21.45;10.88;;;29.30;86.30;;;;;;5052852;28;20056;-70
2023/07/09 05:48:50;;;;;;;24.77;10.45;;;29.30;86.40;;;;;;5053646;28;20397;-70
2023/07/09 05:51:54;;;;;;;19.15;10.77;;;29.50;86.70;;;;;;5053117;28;20044;-70
2023/07/09 05:54:59;;;;;;;20.85;12.02;;;29.60;85.80;;;;;;5053891;28;20393;-70
2023/07/09 05:58:03;;;;;;;18.75;11.73;;;29.60;87.30;;;;;;5053760;28;20048;-70
2023/07/09 06:01:06;;;;;;;19.17;12.95;;;29.70;86.30;;;;;;5053557;28;20043;-70
2023/07/09 06:04:13;;;;;;;22.98;13.30;;;29.60;86.70;;;;;;5053387;28;20075;-70
2023/07/09 06:07:20;;;;;;;27.20;16.02;;;29.60;87.80;;;;;;5053387;28;20044;-70
2023/07/09 06:10:24;;;;;;;28.60;14.45;;;29.80;89.20;;;;;;5053345;28;20591;-70
2023/07/09 06:13:33;;;;;;;22.75;13.10;;;30.10;89.10;;;;;;5053279;28;20036;-70
2023/07/09 06:16:37;;;;;;;18.17;11.82;;;30.40;87.30;;;;;;5053317;28;20052;-70
2023/07/09 06:19:41;;;;;;;22.55;12.15;;;30.70;85.40;;;;;;5053115;28;20480;-70
2023/07/09 06:22:45;;;;;;;25.02;9.98;;;30.90;84.10;;;;;;5053304;28;20047;-71
2023/07/09 06:25:50;;;;;;;16.67;9.68;;;31.00;82.70;;;;;;5053292;28;20511;-71
2023/07/09 06:28:54;;;;;;;19.83;10.02;;;31.10;81.00;;;;;;5053144;28;20063;-71
2023/07/09 06:31:58;;;;;;;18.73;10.02;;;31.30;81.20;;;;;;5052850;28;20426;-71
2023/07/09 06:35:02;;;;;;;18.85;10.57;;;31.60;81.30;;;;;;5052290;28;20365;-71
2023/07/09 06:38:06;;;;;;;14.07;9.85;;;31.80;80.80;;;;;;5052653;28;20460;-71
2023/07/09 06:41:11;;;;;;;15.82;9.38;;;32.00;80.30;;;;;;5052738;28;20051;-71
2023/07/09 06:44:15;;;;;;;18.48;8.60;;;32.30;79.80;;;;;;5050969;28;20052;-71
2023/07/09 06:47:19;;;;;;;16.98;8.10;;;32.60;78.50;;;;;;5052471;28;20032;-71
2023/07/09 06:50:23;;;;;;;13.18;7.85;;;32.90;77.20;;;;;;5052460;28;20061;-71
2023/07/09 06:53:28;;;;;;;13.48;7.32;;;33.10;76.40;;;;;;5052644;28;20048;-71
2023/07/09 06:56:32;;;;;;;13.88;7.97;;;33.30;76.40;;;;;;5052355;28;20107;-71
2023/07/09 06:59:36;;;;;;;18.67;9.75;;;33.50;74.50;;;;;;5052204;28;20540;-71
2023/07/09 07:02:41;;;;;;;13.20;8.27;;;33.60;74.30;;;;;;5052483;28;20059;-72
2023/07/09 07:05:46;;;;;;;16.38;8.00;;;33.80;73.40;;;;;;5052473;28;20060;-69
2023/07/09 07:08:50;;;;;;;16.30;8.55;;;33.80;73.40;;;;;;5052406;28;20532;-70
2023/07/09 07:11:53;;;;;;;12.68;8.20;;;33.80;72.70;;;;;;5052132;28;20044;-70
2023/07/09 07:14:58;;;;;;;11.60;8.20;;;33.70;73.00;;;;;;5052007;28;20044;-70
2023/07/09 07:18:03;;;;;;;15.15;7.72;;;33.90;72.30;;;;;;5051945;28;20413;-70
2023/07/09 07:21:07;;;;;;;16.25;8.55;;;34.10;70.80;;;;;;5051163;28;20429;-71
2023/07/09 07:24:11;;;;;;;16.25;8.50;;;34.30;70.00;;;;;;5051862;28;20055;-71
2023/07/09 07:27:15;;;;;;;14.60;7.63;;;34.50;69.90;;;;;;5051930;28;20040;-71
2023/07/09 07:30:19;;;;;;;17.38;7.93;;;34.70;67.90;;;;;;5051926;28;20044;-71
2023/07/09 07:33:23;;;;;;;13.73;7.78;;;34.70;67.80;;;;;;5051958;28;20048;-71
2023/07/09 07:36:26;;;;;;;12.52;7.50;;;34.80;67.50;;;;;;5051894;28;20048;-71
2023/07/09 07:39:31;;;;;;;11.45;7.40;;;35.00;66.80;;;;;;5051744;28;20044;-71
2023/07/09 07:42:35;;;;;;;15.63;6.97;;;35.10;66.20;;;;;;5051587;28;20056;-71
2023/07/09 07:45:43;;;;;;;20.17;8.60;;;35.40;66.00;;;;;;5051440;28;20068;-71
2023/07/09 07:48:47;;;;;;;13.43;8.23;;;35.60;67.10;;;;;;5051404;28;20052;-71
2023/07/09 07:51:51;;;;;;;21.48;8.15;;;35.80;67.30;;;;;;5051802;28;20040;-71
2023/07/09 07:54:54;;;;;;;18.42;8.48;;;35.60;66.30;;;;;;5051702;28;20040;-71
2023/07/09 07:57:59;;;;;;;11.20;7.88;;;35.60;66.50;;;;;;5051536;28;20043;-71
2023/07/09 08:01:03;;;;;;;12.38;8.00;;;35.50;67.20;;;;;;5051318;28;20040;-71
2023/07/09 08:04:08;;;;;;;15.07;8.55;;;35.60;66.40;;;;;;5051249;28;20063;-71
2023/07/09 08:07:11;;;;;;;15.02;8.20;;;35.40;66.20;;;;;;5051372;28;20043;-71
2023/07/09 08:10:16;;;;;;;11.93;8.02;;;35.40;65.80;;;;;;5051434;28;20051;-71
2023/07/09 08:13:19;;;;;;;15.05;8.15;;;35.60;65.00;;;;;;5051248;28;20052;-71
2023/07/09 08:16:23;;;;;;;13.73;7.50;;;35.80;64.50;;;;;;5050978;28;20040;-71
2023/07/09 08:19:27;;;;;;;10.85;6.88;;;35.70;63.70;;;;;;5050622;28;20056;-71
2023/07/09 08:22:31;;;;;;;16.42;7.82;;;35.80;62.00;;;;;;5051066;28;20052;-71
2023/07/09 08:25:35;;;;;;;17.00;7.10;;;35.70;63.40;;;;;;5050805;28;20056;-71
2023/07/09 08:28:39;;;;;;;13.60;7.68;;;35.80;63.20;;;;;;5050867;28;20036;-71
2023/07/09 08:31:43;;;;;;;15.73;8.35;;;36.00;63.60;;;;;;5050630;28;20060;-71
2023/07/09 08:34:47;;;;;;;14.80;7.03;;;36.10;62.80;;;;;;5050665;28;20044;-71
2023/07/09 08:37:51;;;;;;;17.55;7.20;;;36.20;62.90;;;;;;5050785;28;20052;-72
2023/07/09 08:41:01;;;;;;;15.02;7.60;;;36.30;63.20;;;;;;5050625;28;20044;-71
2023/07/09 08:44:20;;;;;;;11.98;7.00;;;36.50;63.30;;;;;;5050664;28;20048;-71
2023/07/09 08:47:45;;;;;;;13.68;6.40;;;36.60;63.10;;;;;;5051089;28;20048;-71
2023/07/09 08:50:56;;;;;;;14.13;7.60;;;36.50;62.70;;;;;;5050790;28;20056;-71
2023/07/09 08:54:01;;;;;;;13.63;6.85;;;36.50;62.20;;;;;;5050631;28;20040;-71
2023/07/09 08:57:31;;;;;;;14.93;7.40;;;36.50;61.10;;;;;;5050995;28;20048;-71
2023/07/09 09:00:44;;;;;;;16.58;6.85;;;36.10;60.80;;;;;;5050897;28;20056;-71
2023/07/09 09:04:03;;;;;;;18.38;6.45;;;36.00;60.70;;;;;;5050604;28;20052;-72
2023/07/09 09:07:36;;;;;;;9.93;6.00;;;36.10;60.70;;;;;;5052084;28;20048;-71
2023/07/09 09:10:46;;;;;;;12.32;6.13;;;36.10;59.50;;;;;;5054795;28;20048;-71
2023/07/09 09:13:54;;;;;;;8.90;6.00;;;36.20;60.60;;;;;;5053763;28;20048;-71
2023/07/09 09:16:59;;;;;;;12.05;6.53;;;36.30;59.90;;;;;;5054111;28;20069;-71
2023/07/09 09:20:22;;;;;;;12.13;6.40;;;36.40;60.20;;;;;;5053327;28;20064;-71
2023/07/09 09:23:40;;;;;;;13.95;6.32;;;36.20;59.40;;;;;;5054350;28;20587;-72
2023/07/09 09:26:44;;;;;;;18.05;6.65;;;36.30;59.70;;;;;;5054331;28;20424;-71
2023/07/09 09:29:48;;;;;;;11.57;5.88;;;36.00;60.70;;;;;;5054321;28;20044;-71
2023/07/09 09:32:58;;;;;;;12.10;5.97;;;36.00;61.00;;;;;;5054172;28;20051;-71
2023/07/09 09:36:04;;;;;;;11.52;5.53;;;36.00;60.10;;;;;;5053952;28;20048;-71
2023/07/09 09:39:10;;;;;;;14.27;6.63;;;36.20;58.60;;;;;;5052880;28;20055;-72
2023/07/09 09:42:14;;;;;;;10.25;5.90;;;36.30;59.20;;;;;;5053929;28;20048;-70
2023/07/09 09:45:20;;;;;;;14.65;6.32;;;36.30;59.20;;;;;;5053824;28;20048;-72
2023/07/09 09:48:29;;;;;;;7.32;5.30;;;36.40;59.20;;;;;;5053987;28;20048;-72
2023/07/09 09:51:33;;;;;;;10.73;5.93;;;36.40;59.40;;;;;;5053753;28;20048;-72
2023/07/09 09:54:41;;;;;;;13.02;6.25;;;36.50;59.50;;;;;;5053718;28;20048;-72
2023/07/09 09:57:50;;;;;;;12.95;6.85;;;36.20;59.80;;;;;;5053605;28;20051;-72
2023/07/09 10:00:56;;;;;;;10.50;5.95;;;36.10;60.20;;;;;;5053426;28;20091;-72
2023/07/09 10:04:02;;;;;;;10.57;6.18;;;36.10;60.10;;;;;;5053384;28;20056;-70
2023/07/09 10:07:08;;;;;;;15.20;6.70;;;36.10;59.60;;;;;;5053439;28;20166;-70
2023/07/09 10:10:20;;;;;;;11.35;6.25;;;36.10;59.10;;;;;;5053031;28;20040;-72
2023/07/09 10:13:31;;;;;;;15.65;6.07;;;36.20;59.80;;;;;;5053289;28;20064;-69
2023/07/09 10:16:44;;;;;;;18.90;6.57;;;36.10;59.10;;;;;;5053460;28;20111;-71
2023/07/09 10:20:06;;;;;;;9.43;5.55;;;35.70;58.90;;;;;;5051664;28;20067;-71
2023/07/09 10:23:17;;;;;;;12.85;5.70;;;35.70;57.80;;;;;;5053068;28;20140;-71
2023/07/09 10:26:44;;;;;;;20.80;7.38;;;35.80;59.30;;;;;;5052433;28;20056;-70
2023/07/09 10:30:13;;;;;;;13.40;6.47;;;35.70;56.90;;;;;;5052767;28;20044;-71
2023/07/09 10:33:32;;;;;;;11.75;6.53;;;35.60;55.00;;;;;;5053064;28;20056;-71
2023/07/09 10:36:56;;;;;;;9.20;6.13;;;35.60;55.40;;;;;;5052630;28;20040;-71
2023/07/09 10:40:03;;;;;;;10.57;6.07;;;35.60;56.00;;;;;;5052757;28;20047;-71
2023/07/09 10:43:18;;;;;;;12.35;6.25;;;35.70;56.50;;;;;;5052968;28;20052;-71
2023/07/09 10:46:31;;;;;;;14.00;6.60;;;35.70;55.30;;;;;;5052921;28;20052;-70
2023/07/09 10:49:38;;;;;;;11.15;6.30;;;35.70;53.60;;;;;;5052666;28;20048;-71
2023/07/09 10:52:46;;;;;;;8.02;5.75;;;35.70;53.50;;;;;;5052518;28;20492;-70
2023/07/09 10:55:54;;;;;;;8.73;5.50;;;35.60;53.90;;;;;;5052618;28;20044;-70
2023/07/09 10:59:17;;;;;;;15.30;5.28;;;35.70;54.00;;;;;;5052464;28;20519;-71
2023/07/09 11:02:26;;;;;;;6.97;4.70;;;35.70;51.60;;;;;;5051814;28;20048;-70
2023/07/09 11:05:31;;;;;;;8.13;4.75;;;35.60;50.90;;;;;;5051316;28;20056;-70
2023/07/09 11:08:38;;;;;;;9.32;4.90;;;35.60;51.10;;;;;;5052269;28;20500;-71
2023/07/09 11:11:49;;;;;;;8.10;4.32;;;35.60;50.80;;;;;;5052466;28;20056;-71
2023/07/09 11:14:59;;;;;;;7.30;4.75;;;35.50;51.00;;;;;;5052746;28;20052;-71
2023/07/09 11:18:06;;;;;;;5.72;3.90;;;35.50;51.70;;;;;;5052206;28;20063;-71
2023/07/09 11:21:16;;;;;;;8.10;4.70;;;35.50;50.90;;;;;;5052084;28;20401;-71
2023/07/09 11:24:29;;;;;;;;;;;35.60;51.20;;;;;;5052488;28;20522;-70
2023/07/09 11:27:44;;;;;;;8.80;4.35;;;35.50;50.70;;;;;;5050847;28;19915;-71
2023/07/09 11:30:51;;;;;;;10.70;4.22;;;35.50;50.20;;;;;;5051868;28;20051;-71
2023/07/09 11:34:08;;;;;;;9.10;4.22;;;35.50;50.40;;;;;;5051849;28;20044;-71
2023/07/09 11:37:13;;;;;;;7.45;4.50;;;35.50;50.30;;;;;;5052062;28;20488;-71
2023/07/09 11:40:19;;;;;;;11.63;4.70;;;35.50;50.70;;;;;;5051727;28;20052;-71
2023/07/09 11:43:28;;;;;;;8.52;4.65;;;35.60;51.40;;;;;;5051836;28;20044;-71
2023/07/09 11:46:36;;;;;;;7.28;4.20;;;35.50;50.80;;;;;;5051705;28;20056;-71
2023/07/09 11:49:55;;;;;;;12.23;5.03;;;35.50;50.80;;;;;;5051550;28;20044;-71
2023/07/09 11:53:19;;;;;;;8.23;4.47;;;35.50;51.80;;;;;;5051542;28;20511;-71
2023/07/09 11:56:25;;;;;;;12.23;7.05;;;35.60;52.00;;;;;;5050951;28;20048;-71
2023/07/09 11:59:29;;;;;;;9.75;5.47;;;35.60;52.10;;;;;;5050467;28;20036;-71
2023/07/09 12:02:34;;;;;;;8.13;4.88;;;35.60;53.20;;;;;;5051462;28;20503;-71
2023/07/09 12:05:46;;;;;;;6.75;4.30;;;35.60;52.00;;;;;;5051160;28;20059;-71
2023/07/09 12:08:51;;;;;;;10.32;4.30;;;35.60;52.40;;;;;;5051047;28;20040;-71
2023/07/09 12:11:55;;;;;;;10.10;4.53;;;35.60;52.00;;;;;;5051428;28;20111;-71
2023/07/09 12:15:04;;;;;;;6.15;4.25;;;35.60;52.00;;;;;;5050999;28;20397;-71
2023/07/09 12:18:15;;;;;;;7.63;4.10;;;35.70;52.30;;;;;;5050991;28;20405;-71
2023/07/09 12:21:20;;;;;;;9.65;4.78;;;35.60;51.90;;;;;;5051227;28;20047;-71
2023/07/09 12:24:28;;;;;;;5.82;4.32;;;35.60;52.80;;;;;;5051062;28;20044;-71
2023/07/09 12:27:37;;;;;;;7.70;4.07;;;35.60;52.90;;;;;;5051112;28;20044;-71
2023/07/09 12:30:47;;;;;;;8.38;4.10;;;35.60;53.10;;;;;;5050892;28;20051;-71
2023/07/09 12:33:57;;;;;;;5.80;4.05;;;35.70;53.60;;;;;;5051040;28;20112;-71
2023/07/09 12:37:01;;;;;;;8.98;4.47;;;35.70;54.00;;;;;;5051102;28;20051;-71
2023/07/09 12:40:13;;;;;;;8.80;5.07;;;35.70;53.90;;;;;;5050989;28;20048;-71
2023/07/09 12:43:28;;;;;;;10.20;5.10;;;35.80;53.10;;;;;;5050546;28;20047;-71
2023/07/09 12:46:32;;;;;;;7.80;4.80;;;35.70;52.90;;;;;;5050929;28;20055;-71
2023/07/09 12:49:42;;;;;;;5.93;4.10;;;35.70;52.90;;;;;;5050769;28;20669;-71
2023/07/09 12:52:48;;;;;;;8.40;4.45;;;35.60;53.50;;;;;;5050172;28;20520;-71
2023/07/09 12:55:56;;;;;;;6.28;3.75;;;35.50;53.80;;;;;;5050899;28;20036;-71
2023/07/09 12:59:03;;;;;;;12.27;4.63;;;35.50;54.10;;;;;;5050791;28;20055;-71
2023/07/09 13:02:16;;;;;;;7.05;4.20;;;35.60;53.50;;;;;;5050973;28;20056;-71
2023/07/09 13:05:23;;;;;;;6.85;4.40;;;35.60;53.90;;;;;;5050403;28;20056;-71
2023/07/09 13:08:29;;;;;;;9.98;4.68;;;35.50;53.80;;;;;;5050969;28;20052;-71
2023/07/09 13:11:35;;;;;;;7.78;4.22;;;35.50;54.60;;;;;;5051364;28;20409;-71
2023/07/09 13:14:39;;;;;;;7.43;4.95;;;35.50;54.20;;;;;;5050672;28;20051;-71
2023/07/09 13:17:43;;;;;;;12.13;4.65;;;35.50;54.20;;;;;;5050700;28;20036;-71
2023/07/09 13:20:47;;;;;;;9.13;4.78;;;35.50;54.00;;;;;;5050341;28;20538;-71
2023/07/09 13:23:52;;;;;;;6.43;4.57;;;35.50;54.40;;;;;;5050573;28;20504;-71
2023/07/09 13:26:59;;;;;;;9.07;4.40;;;35.50;54.10;;;;;;5050727;28;20055;-71
2023/07/09 13:30:03;;;;;;;11.10;4.93;;;35.50;54.40;;;;;;5050816;28;20397;-71
2023/07/09 13:33:10;;;;;;;7.47;4.40;;;35.60;54.60;;;;;;5050499;28;20044;-71
2023/07/09 13:36:14;;;;;;;6.97;4.30;;;35.60;54.60;;;;;;5050366;28;20392;-71
2023/07/09 13:39:18;;;;;;;7.80;4.03;;;35.60;54.40;;;;;;5050461;28;20047;-71
2023/07/09 13:42:23;;;;;;;8.93;4.28;;;35.50;54.50;;;;;;5049615;28;20507;-71
2023/07/09 13:45:27;;;;;;;6.13;3.90;;;35.50;54.60;;;;;;5050189;28;20064;-71
2023/07/09 13:48:33;;;;;;;8.73;4.68;;;35.60;54.40;;;;;;5050315;28;20048;-71
2023/07/09 13:51:37;;;;;;;9.18;4.00;;;35.60;54.30;;;;;;5050342;28;20040;-70
2023/07/09 13:54:42;;;;;;;10.38;4.22;;;35.60;55.00;;;;;;5053985;28;20044;-71
2023/07/09 13:57:47;;;;;;;9.15;4.70;;;35.60;54.70;;;;;;5053574;28;20127;-71
2023/07/09 14:00:59;;;;;;;6.47;4.10;;;35.60;54.90;;;;;;5053942;28;20040;-71
2023/07/09 14:04:03;;;;;;;8.15;3.90;;;35.50;55.10;;;;;;5053535;28;20048;-71
2023/07/09 14:07:25;;;;;;;6.07;4.32;;;35.50;55.00;;;;;;5053408;28;20523;-71
2023/07/09 14:10:29;;;;;;;8.52;4.20;;;35.50;55.30;;;;;;5053271;28;20051;-71
2023/07/09 14:13:33;;;;;;;10.40;4.88;;;35.50;55.30;;;;;;5053564;28;20061;-71
2023/07/09 14:16:38;;;;;;;7.25;4.18;;;35.50;54.90;;;;;;5053497;28;20040;-71
2023/07/09 14:19:41;;;;;;;6.97;3.90;;;35.50;55.10;;;;;;5053217;28;20051;-71
2023/07/09 14:22:47;;;;;;;5.60;3.60;;;35.50;55.20;;;;;;5053418;28;20040;-71
2023/07/09 14:25:51;;;;;;;5.90;3.88;;;35.50;55.50;;;;;;5051228;28;20056;-71
2023/07/09 14:28:57;;;;;;;8.68;4.38;;;35.50;55.30;;;;;;5051041;28;20040;-70
2023/07/09 14:32:01;;;;;;;8.35;3.92;;;35.50;55.60;;;;;;5051495;28;20048;-70
2023/07/09 14:35:19;;;;;;;9.23;4.30;;;35.50;55.50;;;;;;5051897;28;20048;-69
2023/07/09 14:38:25;;;;;;;7.05;4.53;;;35.50;55.70;;;;;;5052765;28;20441;-72
2023/07/09 14:41:29;;;;;;;10.20;5.60;;;35.50;57.20;;;;;;5053000;28;20048;-70
2023/07/09 14:44:33;;;;;;;11.70;6.50;;;35.40;60.40;;;;;;5052937;28;20051;-71
2023/07/09 14:47:37;;;;;;;8.65;6.03;;;35.40;62.20;;;;;;5052069;28;20385;-70
2023/07/09 14:50:42;;;;;;;9.52;4.95;;;35.40;61.10;;;;;;5052816;28;20043;-70
2023/07/09 14:53:46;;;;;;;7.32;4.80;;;35.40;60.00;;;;;;5052702;28;20500;-70
2023/07/09 14:56:51;;;;;;;12.48;6.20;;;35.40;59.70;;;;;;5052659;28;20044;-70
2023/07/09 14:59:56;;;;;;;12.48;5.60;;;35.40;62.10;;;;;;5052368;28;20060;-70
2023/07/09 15:03:00;;;;;;;12.05;5.68;;;35.40;62.00;;;;;;5052414;28;20044;-70
2023/07/09 15:06:04;;;;;;;8.73;5.47;;;35.30;61.00;;;;;;5039193;28;20056;-70
2023/07/09 15:09:07;;;;;;;8.27;5.10;;;35.30;61.00;;;;;;5052348;28;20048;-70
2023/07/09 15:12:19;;;;;;;8.90;6.32;;;35.30;61.00;;;;;;5051463;28;20043;-70
2023/07/09 15:15:28;;;;;;;8.32;5.57;;;35.20;61.50;;;;;;5052339;28;20048;-71
2023/07/09 15:18:36;;;;;;;10.35;5.97;;;35.20;61.90;;;;;;5052144;28;20389;-70
2023/07/09 15:21:40;;;;;;;8.63;5.30;;;35.30;62.70;;;;;;5052003;28;20067;-70
2023/07/09 15:24:45;;;;;;;10.30;5.65;;;35.20;62.40;;;;;;5050815;28;20052;-70
2023/07/09 15:27:50;;;;;;;8.07;5.38;;;35.30;62.10;;;;;;5051549;28;20052;-70
2023/07/09 15:30:55;;;;;;;10.10;6.07;;;35.20;61.80;;;;;;5051874;28;20055;-72
2023/07/09 15:33:58;;;;;;;11.10;6.20;;;35.30;60.50;;;;;;5052055;28;20047;-70
2023/07/09 15:37:14;;;;;;;9.98;6.28;;;35.20;61.90;;;;;;5051860;28;20052;-70
2023/07/09 15:40:28;;;;;;;9.32;5.93;;;35.20;63.00;;;;;;5050610;28;20052;-70
2023/07/09 15:43:32;;;;;;;12.32;5.63;;;35.20;62.80;;;;;;5051861;28;20079;-70
2023/07/09 15:46:36;;;;;;;10.70;6.10;;;35.20;61.90;;;;;;5051448;28;20123;-70
2023/07/09 15:49:40;;;;;;;7.32;5.72;;;35.20;62.10;;;;;;5051648;28;20044;-70
2023/07/09 15:52:47;;;;;;;8.20;5.72;;;35.20;62.10;;;;;;5051687;28;20044;-70
2023/07/09 15:55:57;;;;;;;8.18;5.57;;;35.10;62.20;;;;;;5051377;28;20048;-71
2023/07/09 15:59:01;;;;;;;7.70;5.68;;;35.10;62.30;;;;;;5051486;28;20048;-70